sensor_id;sensor_type;location;lat;lon;timestamp;P1;durP1;ratioP1;P2;durP2;ratioP2
66270;SDS011;53063;39.614;8.814;2023-06-26T00:02:23;9.07;;;2.90;;
66270;SDS011;53063;39.614;8.814;2023-06-26T00:04:49;7.07;;;2.80;;
66270;SDS011;53063;39.614;8.814;2023-06-26T00:07:19;6.65;;;3.30;;
66270;SDS011;53063;39.614;8.814;2023-06-26T00:09:45;7.20;;;3.35;;
66270;SDS011;53063;39.614;8.814;2023-06-26T00:12:11;7.32;;;3.10;;
66270;SDS011;53063;39.614;8.814;2023-06-26T00:14:37;10.90;;;3.60;;
66270;SDS011;53063;39.614;8.814;2023-06-26T00:17:03;9.60;;;3.17;;
66270;SDS011;53063;39.614;8.814;2023-06-26T00:19:29;6.93;;;2.90;;
66270;SDS011;53063;39.614;8.814;2023-06-26T00:21:56;5.05;;;2.83;;
66270;SDS011;53063;39.614;8.814;2023-06-26T00:24:22;9.38;;;3.03;;
66270;SDS011;53063;39.614;8.814;2023-06-26T00:26:48;4.95;;;3.15;;
66270;SDS011;53063;39.614;8.814;2023-06-26T00:29:14;8.82;;;3.15;;
66270;SDS011;53063;39.614;8.814;2023-06-26T00:31:41;9.95;;;3.60;;
66270;SDS011;53063;39.614;8.814;2023-06-26T00:34:07;9.27;;;3.15;;
66270;SDS011;53063;39.614;8.814;2023-06-26T00:36:32;5.43;;;2.88;;
66270;SDS011;53063;39.614;8.814;2023-06-26T00:38:59;5.82;;;2.83;;
66270;SDS011;53063;39.614;8.814;2023-06-26T00:41:26;5.43;;;2.67;;
66270;SDS011;53063;39.614;8.814;2023-06-26T00:43:52;9.25;;;3.35;;
66270;SDS011;53063;39.614;8.814;2023-06-26T00:46:18;7.95;;;3.22;;
66270;SDS011;53063;39.614;8.814;2023-06-26T00:48:44;8.23;;;3.80;;
66270;SDS011;53063;39.614;8.814;2023-06-26T00:51:13;5.72;;;2.95;;
66270;SDS011;53063;39.614;8.814;2023-06-26T00:53:39;9.60;;;3.33;;
66270;SDS011;53063;39.614;8.814;2023-06-26T00:56:06;6.95;;;2.97;;
66270;SDS011;53063;39.614;8.814;2023-06-26T00:58:35;9.02;;;3.75;;
66270;SDS011;53063;39.614;8.814;2023-06-26T01:01:01;6.13;;;3.00;;
66270;SDS011;53063;39.614;8.814;2023-06-26T01:03:28;6.47;;;3.60;;
66270;SDS011;53063;39.614;8.814;2023-06-26T01:05:56;6.70;;;2.83;;
66270;SDS011;53063;39.614;8.814;2023-06-26T01:08:24;7.38;;;3.10;;
66270;SDS011;53063;39.614;8.814;2023-06-26T01:10:50;11.85;;;3.28;;
66270;SDS011;53063;39.614;8.814;2023-06-26T01:13:17;8.18;;;3.70;;
66270;SDS011;53063;39.614;8.814;2023-06-26T01:15:43;9.80;;;3.13;;
66270;SDS011;53063;39.614;8.814;2023-06-26T01:18:11;6.20;;;2.90;;
66270;SDS011;53063;39.614;8.814;2023-06-26T01:20:40;8.27;;;3.58;;
66270;SDS011;53063;39.614;8.814;2023-06-26T01:23:18;7.68;;;2.97;;
66270;SDS011;53063;39.614;8.814;2023-06-26T01:28:34;7.93;;;2.95;;
66270;SDS011;53063;39.614;8.814;2023-06-26T01:31:03;6.45;;;3.40;;
66270;SDS011;53063;39.614;8.814;2023-06-26T01:33:30;5.40;;;3.47;;
66270;SDS011;53063;39.614;8.814;2023-06-26T01:35:57;8.68;;;3.22;;
66270;SDS011;53063;39.614;8.814;2023-06-26T01:38:23;7.72;;;3.38;;
66270;SDS011;53063;39.614;8.814;2023-06-26T01:40:49;13.93;;;3.70;;
66270;SDS011;53063;39.614;8.814;2023-06-26T01:43:24;10.68;;;3.70;;
66270;SDS011;53063;39.614;8.814;2023-06-26T01:46:09;6.70;;;3.25;;
66270;SDS011;53063;39.614;8.814;2023-06-26T01:54:33;11.63;;;3.25;;
66270;SDS011;53063;39.614;8.814;2023-06-26T01:57:08;5.80;;;2.85;;
66270;SDS011;53063;39.614;8.814;2023-06-26T01:59:35;9.35;;;3.15;;
66270;SDS011;53063;39.614;8.814;2023-06-26T02:02:06;7.60;;;3.35;;
66270;SDS011;53063;39.614;8.814;2023-06-26T02:04:33;6.85;;;3.28;;
66270;SDS011;53063;39.614;8.814;2023-06-26T02:06:59;13.82;;;3.25;;
66270;SDS011;53063;39.614;8.814;2023-06-26T02:09:28;7.72;;;3.85;;
66270;SDS011;53063;39.614;8.814;2023-06-26T02:11:55;11.25;;;3.60;;
66270;SDS011;53063;39.614;8.814;2023-06-26T02:14:21;6.45;;;3.42;;
66270;SDS011;53063;39.614;8.814;2023-06-26T02:16:47;11.20;;;3.53;;
66270;SDS011;53063;39.614;8.814;2023-06-26T02:19:13;9.95;;;3.60;;
66270;SDS011;53063;39.614;8.814;2023-06-26T02:21:47;6.00;;;3.53;;
66270;SDS011;53063;39.614;8.814;2023-06-26T02:24:16;9.13;;;3.50;;
66270;SDS011;53063;39.614;8.814;2023-06-26T02:26:42;7.93;;;3.30;;
66270;SDS011;53063;39.614;8.814;2023-06-26T02:29:10;8.02;;;3.80;;
66270;SDS011;53063;39.614;8.814;2023-06-26T02:31:39;7.63;;;3.95;;
66270;SDS011;53063;39.614;8.814;2023-06-26T02:34:04;7.55;;;3.58;;
66270;SDS011;53063;39.614;8.814;2023-06-26T02:36:32;8.00;;;3.50;;
66270;SDS011;53063;39.614;8.814;2023-06-26T02:39:00;8.20;;;3.30;;
66270;SDS011;53063;39.614;8.814;2023-06-26T02:41:26;7.40;;;3.33;;
66270;SDS011;53063;39.614;8.814;2023-06-26T02:43:51;9.60;;;3.83;;
66270;SDS011;53063;39.614;8.814;2023-06-26T02:46:18;7.03;;;3.38;;
66270;SDS011;53063;39.614;8.814;2023-06-26T02:48:44;8.63;;;3.80;;
66270;SDS011;53063;39.614;8.814;2023-06-26T02:51:10;8.75;;;3.47;;
66270;SDS011;53063;39.614;8.814;2023-06-26T02:53:36;7.85;;;4.00;;
66270;SDS011;53063;39.614;8.814;2023-06-26T02:56:03;7.72;;;3.40;;
66270;SDS011;53063;39.614;8.814;2023-06-26T02:58:30;9.40;;;4.10;;
66270;SDS011;53063;39.614;8.814;2023-06-26T03:00:56;8.68;;;3.72;;
66270;SDS011;53063;39.614;8.814;2023-06-26T03:03:22;7.13;;;3.60;;
66270;SDS011;53063;39.614;8.814;2023-06-26T03:05:48;6.63;;;3.33;;
66270;SDS011;53063;39.614;8.814;2023-06-26T03:08:14;6.22;;;3.50;;
66270;SDS011;53063;39.614;8.814;2023-06-26T03:10:41;9.02;;;3.85;;
66270;SDS011;53063;39.614;8.814;2023-06-26T03:13:07;6.53;;;3.85;;
66270;SDS011;53063;39.614;8.814;2023-06-26T03:15:33;8.43;;;3.65;;
66270;SDS011;53063;39.614;8.814;2023-06-26T03:17:59;6.70;;;2.90;;
66270;SDS011;53063;39.614;8.814;2023-06-26T03:20:27;8.20;;;3.45;;
66270;SDS011;53063;39.614;8.814;2023-06-26T03:22:55;10.38;;;3.72;;
66270;SDS011;53063;39.614;8.814;2023-06-26T03:25:22;6.47;;;3.50;;
66270;SDS011;53063;39.614;8.814;2023-06-26T03:27:53;8.07;;;3.67;;
66270;SDS011;53063;39.614;8.814;2023-06-26T03:30:19;8.30;;;3.70;;
66270;SDS011;53063;39.614;8.814;2023-06-26T03:32:49;6.78;;;3.50;;
66270;SDS011;53063;39.614;8.814;2023-06-26T03:35:16;9.52;;;3.95;;
66270;SDS011;53063;39.614;8.814;2023-06-26T03:37:42;6.72;;;3.17;;
66270;SDS011;53063;39.614;8.814;2023-06-26T03:40:08;7.32;;;3.40;;
66270;SDS011;53063;39.614;8.814;2023-06-26T03:42:36;7.70;;;3.35;;
66270;SDS011;53063;39.614;8.814;2023-06-26T03:45:02;8.13;;;3.95;;
66270;SDS011;53063;39.614;8.814;2023-06-26T03:47:29;7.82;;;3.30;;
66270;SDS011;53063;39.614;8.814;2023-06-26T03:49:55;6.55;;;3.15;;
66270;SDS011;53063;39.614;8.814;2023-06-26T03:52:21;8.32;;;3.70;;
66270;SDS011;53063;39.614;8.814;2023-06-26T03:54:47;8.30;;;3.58;;
66270;SDS011;53063;39.614;8.814;2023-06-26T03:57:15;7.57;;;3.65;;
66270;SDS011;53063;39.614;8.814;2023-06-26T03:59:42;7.82;;;2.88;;
66270;SDS011;53063;39.614;8.814;2023-06-26T04:02:07;6.50;;;3.00;;
66270;SDS011;53063;39.614;8.814;2023-06-26T04:04:33;8.60;;;3.10;;
66270;SDS011;53063;39.614;8.814;2023-06-26T04:06:59;10.07;;;3.33;;
66270;SDS011;53063;39.614;8.814;2023-06-26T04:09:25;7.90;;;3.28;;
66270;SDS011;53063;39.614;8.814;2023-06-26T04:11:51;8.68;;;3.20;;
66270;SDS011;53063;39.614;8.814;2023-06-26T04:14:17;8.63;;;3.22;;
66270;SDS011;53063;39.614;8.814;2023-06-26T04:16:43;6.88;;;3.08;;
66270;SDS011;53063;39.614;8.814;2023-06-26T04:19:10;6.72;;;2.78;;
66270;SDS011;53063;39.614;8.814;2023-06-26T04:21:36;10.18;;;3.45;;
66270;SDS011;53063;39.614;8.814;2023-06-26T04:24:02;4.47;;;2.85;;
66270;SDS011;53063;39.614;8.814;2023-06-26T04:26:28;6.22;;;3.05;;
66270;SDS011;53063;39.614;8.814;2023-06-26T04:28:54;4.50;;;2.65;;
66270;SDS011;53063;39.614;8.814;2023-06-26T04:31:20;4.80;;;2.80;;
66270;SDS011;53063;39.614;8.814;2023-06-26T04:33:47;7.18;;;3.20;;
66270;SDS011;53063;39.614;8.814;2023-06-26T04:36:19;6.82;;;3.30;;
66270;SDS011;53063;39.614;8.814;2023-06-26T04:38:45;4.60;;;2.80;;
66270;SDS011;53063;39.614;8.814;2023-06-26T04:41:11;6.35;;;3.42;;
66270;SDS011;53063;39.614;8.814;2023-06-26T04:43:37;8.60;;;3.40;;
66270;SDS011;53063;39.614;8.814;2023-06-26T04:46:03;6.88;;;3.05;;
66270;SDS011;53063;39.614;8.814;2023-06-26T04:48:29;12.48;;;3.45;;
66270;SDS011;53063;39.614;8.814;2023-06-26T04:50:56;5.13;;;2.95;;
66270;SDS011;53063;39.614;8.814;2023-06-26T04:53:24;7.20;;;3.13;;
66270;SDS011;53063;39.614;8.814;2023-06-26T04:55:50;7.47;;;3.47;;
66270;SDS011;53063;39.614;8.814;2023-06-26T04:58:17;5.78;;;3.53;;
66270;SDS011;53063;39.614;8.814;2023-06-26T05:00:43;7.00;;;3.42;;
66270;SDS011;53063;39.614;8.814;2023-06-26T05:03:09;5.75;;;3.13;;
66270;SDS011;53063;39.614;8.814;2023-06-26T05:05:37;9.32;;;3.42;;
66270;SDS011;53063;39.614;8.814;2023-06-26T05:08:15;8.98;;;3.65;;
66270;SDS011;53063;39.614;8.814;2023-06-26T05:10:53;9.00;;;3.85;;
66270;SDS011;53063;39.614;8.814;2023-06-26T05:13:23;9.13;;;3.58;;
66270;SDS011;53063;39.614;8.814;2023-06-26T05:15:49;10.60;;;3.83;;
66270;SDS011;53063;39.614;8.814;2023-06-26T05:18:15;7.32;;;3.60;;
66270;SDS011;53063;39.614;8.814;2023-06-26T05:20:41;7.20;;;4.25;;
66270;SDS011;53063;39.614;8.814;2023-06-26T05:23:07;10.90;;;4.68;;
66270;SDS011;53063;39.614;8.814;2023-06-26T05:25:35;8.93;;;4.30;;
66270;SDS011;53063;39.614;8.814;2023-06-26T05:28:02;12.07;;;4.43;;
66270;SDS011;53063;39.614;8.814;2023-06-26T05:30:30;8.52;;;4.20;;
66270;SDS011;53063;39.614;8.814;2023-06-26T05:32:59;7.60;;;4.10;;
66270;SDS011;53063;39.614;8.814;2023-06-26T05:35:27;7.07;;;4.32;;
66270;SDS011;53063;39.614;8.814;2023-06-26T05:37:57;6.50;;;4.13;;
66270;SDS011;53063;39.614;8.814;2023-06-26T05:40:24;7.55;;;4.30;;
66270;SDS011;53063;39.614;8.814;2023-06-26T05:42:50;10.43;;;4.63;;
66270;SDS011;53063;39.614;8.814;2023-06-26T05:45:16;9.38;;;4.50;;
66270;SDS011;53063;39.614;8.814;2023-06-26T05:47:42;7.85;;;4.25;;
66270;SDS011;53063;39.614;8.814;2023-06-26T05:50:08;11.48;;;4.85;;
66270;SDS011;53063;39.614;8.814;2023-06-26T05:52:35;7.97;;;4.45;;
66270;SDS011;53063;39.614;8.814;2023-06-26T05:55:04;7.22;;;4.80;;
66270;SDS011;53063;39.614;8.814;2023-06-26T05:57:31;9.95;;;5.10;;
66270;SDS011;53063;39.614;8.814;2023-06-26T05:59:57;10.30;;;4.60;;
66270;SDS011;53063;39.614;8.814;2023-06-26T06:02:23;6.97;;;4.45;;
66270;SDS011;53063;39.614;8.814;2023-06-26T06:04:49;5.53;;;3.70;;
66270;SDS011;53063;39.614;8.814;2023-06-26T06:07:15;6.50;;;3.88;;
66270;SDS011;53063;39.614;8.814;2023-06-26T06:09:41;7.88;;;4.18;;
66270;SDS011;53063;39.614;8.814;2023-06-26T06:12:07;9.88;;;4.15;;
66270;SDS011;53063;39.614;8.814;2023-06-26T06:14:33;7.95;;;4.10;;
66270;SDS011;53063;39.614;8.814;2023-06-26T06:17:00;9.30;;;4.25;;
66270;SDS011;53063;39.614;8.814;2023-06-26T06:19:26;7.97;;;4.15;;
66270;SDS011;53063;39.614;8.814;2023-06-26T06:21:52;8.15;;;3.97;;
66270;SDS011;53063;39.614;8.814;2023-06-26T06:24:18;5.85;;;4.05;;
66270;SDS011;53063;39.614;8.814;2023-06-26T06:26:44;7.78;;;4.18;;
66270;SDS011;53063;39.614;8.814;2023-06-26T06:29:10;9.05;;;4.75;;
66270;SDS011;53063;39.614;8.814;2023-06-26T06:31:36;9.30;;;4.50;;
66270;SDS011;53063;39.614;8.814;2023-06-26T06:34:02;7.68;;;4.65;;
66270;SDS011;53063;39.614;8.814;2023-06-26T06:36:28;8.02;;;5.05;;
66270;SDS011;53063;39.614;8.814;2023-06-26T06:38:54;7.22;;;5.18;;
66270;SDS011;53063;39.614;8.814;2023-06-26T06:41:20;6.80;;;4.35;;
66270;SDS011;53063;39.614;8.814;2023-06-26T06:43:46;8.48;;;5.03;;
66270;SDS011;53063;39.614;8.814;2023-06-26T06:46:12;20.35;;;5.45;;
66270;SDS011;53063;39.614;8.814;2023-06-26T06:48:38;7.82;;;5.13;;
66270;SDS011;53063;39.614;8.814;2023-06-26T06:51:05;8.52;;;4.90;;
66270;SDS011;53063;39.614;8.814;2023-06-26T06:53:31;10.25;;;5.57;;
66270;SDS011;53063;39.614;8.814;2023-06-26T06:55:57;11.55;;;5.53;;
66270;SDS011;53063;39.614;8.814;2023-06-26T06:58:23;8.07;;;4.53;;
66270;SDS011;53063;39.614;8.814;2023-06-26T07:00:49;8.73;;;5.47;;
66270;SDS011;53063;39.614;8.814;2023-06-26T07:03:17;9.07;;;4.65;;
66270;SDS011;53063;39.614;8.814;2023-06-26T07:05:43;8.90;;;5.32;;
66270;SDS011;53063;39.614;8.814;2023-06-26T07:08:09;7.07;;;4.57;;
66270;SDS011;53063;39.614;8.814;2023-06-26T07:10:35;8.27;;;4.40;;
66270;SDS011;53063;39.614;8.814;2023-06-26T07:13:01;7.60;;;4.20;;
66270;SDS011;53063;39.614;8.814;2023-06-26T07:15:27;7.20;;;4.75;;
66270;SDS011;53063;39.614;8.814;2023-06-26T07:17:53;7.93;;;4.47;;
66270;SDS011;53063;39.614;8.814;2023-06-26T07:20:19;9.05;;;4.80;;
66270;SDS011;53063;39.614;8.814;2023-06-26T07:22:45;7.78;;;5.25;;
66270;SDS011;53063;39.614;8.814;2023-06-26T07:25:12;9.50;;;4.68;;
66270;SDS011;53063;39.614;8.814;2023-06-26T07:27:38;8.15;;;4.10;;
66270;SDS011;53063;39.614;8.814;2023-06-26T07:30:06;8.55;;;4.60;;
66270;SDS011;53063;39.614;8.814;2023-06-26T07:32:36;8.75;;;4.38;;
66270;SDS011;53063;39.614;8.814;2023-06-26T07:35:02;8.05;;;4.43;;
66270;SDS011;53063;39.614;8.814;2023-06-26T07:37:29;10.40;;;4.30;;
66270;SDS011;53063;39.614;8.814;2023-06-26T07:39:55;6.13;;;3.90;;
66270;SDS011;53063;39.614;8.814;2023-06-26T07:42:21;6.53;;;3.97;;
66270;SDS011;53063;39.614;8.814;2023-06-26T07:44:46;8.45;;;4.10;;
66270;SDS011;53063;39.614;8.814;2023-06-26T07:47:13;6.75;;;4.10;;
66270;SDS011;53063;39.614;8.814;2023-06-26T07:49:39;5.88;;;3.90;;
66270;SDS011;53063;39.614;8.814;2023-06-26T07:52:05;7.53;;;4.15;;
66270;SDS011;53063;39.614;8.814;2023-06-26T07:54:32;7.25;;;3.90;;
66270;SDS011;53063;39.614;8.814;2023-06-26T07:56:58;6.72;;;3.85;;
66270;SDS011;53063;39.614;8.814;2023-06-26T07:59:27;8.05;;;3.55;;
66270;SDS011;53063;39.614;8.814;2023-06-26T08:01:54;4.78;;;3.47;;
66270;SDS011;53063;39.614;8.814;2023-06-26T08:04:22;6.93;;;3.60;;
66270;SDS011;53063;39.614;8.814;2023-06-26T08:06:51;5.95;;;3.33;;
66270;SDS011;53063;39.614;8.814;2023-06-26T08:09:22;9.35;;;3.70;;
66270;SDS011;53063;39.614;8.814;2023-06-26T08:11:49;5.25;;;3.40;;
66270;SDS011;53063;39.614;8.814;2023-06-26T08:14:15;7.93;;;2.97;;
66270;SDS011;53063;39.614;8.814;2023-06-26T08:16:42;7.00;;;3.92;;
66270;SDS011;53063;39.614;8.814;2023-06-26T08:19:09;6.30;;;3.47;;
66270;SDS011;53063;39.614;8.814;2023-06-26T08:21:37;7.32;;;3.58;;
66270;SDS011;53063;39.614;8.814;2023-06-26T08:24:03;5.63;;;3.38;;
66270;SDS011;53063;39.614;8.814;2023-06-26T08:26:29;5.40;;;3.63;;
66270;SDS011;53063;39.614;8.814;2023-06-26T08:28:55;5.20;;;3.47;;
66270;SDS011;53063;39.614;8.814;2023-06-26T08:31:21;6.10;;;3.25;;
66270;SDS011;53063;39.614;8.814;2023-06-26T08:33:47;4.82;;;2.78;;
66270;SDS011;53063;39.614;8.814;2023-06-26T08:36:13;5.82;;;2.70;;
66270;SDS011;53063;39.614;8.814;2023-06-26T08:38:39;7.45;;;3.00;;
66270;SDS011;53063;39.614;8.814;2023-06-26T08:41:09;7.15;;;2.95;;
66270;SDS011;53063;39.614;8.814;2023-06-26T08:43:35;4.45;;;2.47;;
66270;SDS011;53063;39.614;8.814;2023-06-26T08:46:02;6.72;;;3.65;;
66270;SDS011;53063;39.614;8.814;2023-06-26T08:48:34;10.60;;;3.13;;
66270;SDS011;53063;39.614;8.814;2023-06-26T08:51:13;4.22;;;3.00;;
66270;SDS011;53063;39.614;8.814;2023-06-26T08:54:00;4.45;;;2.65;;
66270;SDS011;53063;39.614;8.814;2023-06-26T08:56:28;4.25;;;2.60;;
66270;SDS011;53063;39.614;8.814;2023-06-26T08:59:01;4.50;;;2.83;;
66270;SDS011;53063;39.614;8.814;2023-06-26T09:01:27;4.15;;;2.38;;
66270;SDS011;53063;39.614;8.814;2023-06-26T09:03:53;7.68;;;2.88;;
66270;SDS011;53063;39.614;8.814;2023-06-26T09:06:20;3.78;;;2.72;;
66270;SDS011;53063;39.614;8.814;2023-06-26T09:08:46;8.07;;;3.08;;
66270;SDS011;53063;39.614;8.814;2023-06-26T09:11:12;4.80;;;2.67;;
66270;SDS011;53063;39.614;8.814;2023-06-26T09:13:37;6.32;;;2.50;;
66270;SDS011;53063;39.614;8.814;2023-06-26T09:16:06;4.22;;;2.35;;
66270;SDS011;53063;39.614;8.814;2023-06-26T09:18:33;3.75;;;2.70;;
66270;SDS011;53063;39.614;8.814;2023-06-26T09:20:59;5.95;;;2.60;;
66270;SDS011;53063;39.614;8.814;2023-06-26T09:23:25;4.05;;;2.35;;
66270;SDS011;53063;39.614;8.814;2023-06-26T09:25:51;7.55;;;2.67;;
66270;SDS011;53063;39.614;8.814;2023-06-26T09:28:18;6.88;;;2.67;;
66270;SDS011;53063;39.614;8.814;2023-06-26T09:30:47;4.78;;;3.08;;
66270;SDS011;53063;39.614;8.814;2023-06-26T09:33:16;4.25;;;2.42;;
66270;SDS011;53063;39.614;8.814;2023-06-26T09:35:43;3.65;;;2.47;;
66270;SDS011;53063;39.614;8.814;2023-06-26T09:38:11;4.18;;;2.50;;
66270;SDS011;53063;39.614;8.814;2023-06-26T09:40:38;4.72;;;2.47;;
66270;SDS011;53063;39.614;8.814;2023-06-26T09:43:04;3.58;;;2.20;;
66270;SDS011;53063;39.614;8.814;2023-06-26T09:45:35;5.30;;;2.50;;
66270;SDS011;53063;39.614;8.814;2023-06-26T09:48:02;3.90;;;2.40;;
66270;SDS011;53063;39.614;8.814;2023-06-26T09:50:29;4.40;;;2.40;;
66270;SDS011;53063;39.614;8.814;2023-06-26T09:52:55;4.03;;;2.03;;
66270;SDS011;53063;39.614;8.814;2023-06-26T09:55:21;7.32;;;3.33;;
66270;SDS011;53063;39.614;8.814;2023-06-26T09:57:49;5.85;;;2.55;;
66270;SDS011;53063;39.614;8.814;2023-06-26T10:00:15;8.57;;;2.83;;
66270;SDS011;53063;39.614;8.814;2023-06-26T10:02:42;3.63;;;2.28;;
66270;SDS011;53063;39.614;8.814;2023-06-26T10:05:08;6.00;;;2.17;;
66270;SDS011;53063;39.614;8.814;2023-06-26T10:07:35;3.65;;;2.63;;
66270;SDS011;53063;39.614;8.814;2023-06-26T10:10:02;2.13;;;1.60;;
66270;SDS011;53063;39.614;8.814;2023-06-26T10:12:30;2.67;;;2.17;;
66270;SDS011;53063;39.614;8.814;2023-06-26T10:14:57;3.13;;;2.17;;
66270;SDS011;53063;39.614;8.814;2023-06-26T10:17:27;3.05;;;1.80;;
66270;SDS011;53063;39.614;8.814;2023-06-26T10:19:55;5.25;;;2.13;;
66270;SDS011;53063;39.614;8.814;2023-06-26T10:22:29;2.60;;;1.77;;
66270;SDS011;53063;39.614;8.814;2023-06-26T10:25:00;3.90;;;2.13;;
66270;SDS011;53063;39.614;8.814;2023-06-26T10:27:32;2.60;;;1.55;;
66270;SDS011;53063;39.614;8.814;2023-06-26T10:30:03;5.18;;;2.05;;
66270;SDS011;53063;39.614;8.814;2023-06-26T10:32:32;2.70;;;1.65;;
66270;SDS011;53063;39.614;8.814;2023-06-26T10:34:58;3.10;;;1.90;;
66270;SDS011;53063;39.614;8.814;2023-06-26T10:37:41;3.90;;;1.63;;
66270;SDS011;53063;39.614;8.814;2023-06-26T10:40:11;3.75;;;1.60;;
66270;SDS011;53063;39.614;8.814;2023-06-26T10:42:38;8.35;;;2.20;;
66270;SDS011;53063;39.614;8.814;2023-06-26T10:47:41;3.10;;;1.65;;
66270;SDS011;53063;39.614;8.814;2023-06-26T10:50:22;3.80;;;1.60;;
66270;SDS011;53063;39.614;8.814;2023-06-26T10:55:36;4.15;;;1.70;;
66270;SDS011;53063;39.614;8.814;2023-06-26T10:58:02;3.33;;;1.77;;
66270;SDS011;53063;39.614;8.814;2023-06-26T11:00:28;3.45;;;1.90;;
66270;SDS011;53063;39.614;8.814;2023-06-26T11:02:54;3.10;;;2.00;;
66270;SDS011;53063;39.614;8.814;2023-06-26T11:05:27;3.38;;;1.80;;
66270;SDS011;53063;39.614;8.814;2023-06-26T11:08:04;4.60;;;2.10;;
66270;SDS011;53063;39.614;8.814;2023-06-26T11:13:17;3.47;;;2.30;;
66270;SDS011;53063;39.614;8.814;2023-06-26T11:15:47;4.20;;;2.00;;
66270;SDS011;53063;39.614;8.814;2023-06-26T11:18:14;6.60;;;2.33;;
66270;SDS011;53063;39.614;8.814;2023-06-26T11:20:40;3.17;;;2.10;;
66270;SDS011;53063;39.614;8.814;2023-06-26T11:23:09;2.60;;;2.08;;
66270;SDS011;53063;39.614;8.814;2023-06-26T11:25:36;3.88;;;2.20;;
66270;SDS011;53063;39.614;8.814;2023-06-26T11:28:03;2.97;;;2.20;;
66270;SDS011;53063;39.614;8.814;2023-06-26T11:30:30;4.85;;;2.50;;
66270;SDS011;53063;39.614;8.814;2023-06-26T11:33:04;5.43;;;2.10;;
66270;SDS011;53063;39.614;8.814;2023-06-26T11:35:34;4.25;;;2.28;;
66270;SDS011;53063;39.614;8.814;2023-06-26T11:38:01;2.85;;;2.30;;
66270;SDS011;53063;39.614;8.814;2023-06-26T11:40:34;6.47;;;2.17;;
66270;SDS011;53063;39.614;8.814;2023-06-26T11:43:01;3.30;;;2.50;;
66270;SDS011;53063;39.614;8.814;2023-06-26T11:45:29;4.32;;;2.10;;
66270;SDS011;53063;39.614;8.814;2023-06-26T11:47:56;10.30;;;2.55;;
66270;SDS011;53063;39.614;8.814;2023-06-26T11:50:23;4.65;;;2.50;;
66270;SDS011;53063;39.614;8.814;2023-06-26T11:52:53;3.80;;;2.42;;
66270;SDS011;53063;39.614;8.814;2023-06-26T11:55:23;5.35;;;2.53;;
66270;SDS011;53063;39.614;8.814;2023-06-26T11:57:50;4.45;;;2.47;;
66270;SDS011;53063;39.614;8.814;2023-06-26T12:00:19;3.78;;;2.42;;
66270;SDS011;53063;39.614;8.814;2023-06-26T12:02:46;4.82;;;2.40;;
66270;SDS011;53063;39.614;8.814;2023-06-26T12:05:15;4.50;;;2.47;;
66270;SDS011;53063;39.614;8.814;2023-06-26T12:07:42;4.07;;;2.50;;
66270;SDS011;53063;39.614;8.814;2023-06-26T12:10:10;5.40;;;2.50;;
66270;SDS011;53063;39.614;8.814;2023-06-26T12:12:37;3.45;;;2.72;;
66270;SDS011;53063;39.614;8.814;2023-06-26T12:15:03;5.82;;;2.72;;
66270;SDS011;53063;39.614;8.814;2023-06-26T12:17:32;4.60;;;2.90;;
66270;SDS011;53063;39.614;8.814;2023-06-26T12:19:58;4.20;;;3.05;;
66270;SDS011;53063;39.614;8.814;2023-06-26T12:22:24;5.03;;;2.72;;
66270;SDS011;53063;39.614;8.814;2023-06-26T12:24:58;4.32;;;2.63;;
66270;SDS011;53063;39.614;8.814;2023-06-26T12:27:24;6.45;;;2.95;;
66270;SDS011;53063;39.614;8.814;2023-06-26T12:29:51;5.32;;;2.70;;
66270;SDS011;53063;39.614;8.814;2023-06-26T12:32:19;4.93;;;2.90;;
66270;SDS011;53063;39.614;8.814;2023-06-26T12:34:50;4.10;;;2.80;;
66270;SDS011;53063;39.614;8.814;2023-06-26T12:37:18;5.60;;;3.10;;
66270;SDS011;53063;39.614;8.814;2023-06-26T12:39:48;4.97;;;3.00;;
66270;SDS011;53063;39.614;8.814;2023-06-26T12:42:17;3.50;;;2.70;;
66270;SDS011;53063;39.614;8.814;2023-06-26T12:44:45;5.37;;;2.50;;
66270;SDS011;53063;39.614;8.814;2023-06-26T12:47:13;6.28;;;2.97;;
66270;SDS011;53063;39.614;8.814;2023-06-26T12:49:41;3.95;;;3.08;;
66270;SDS011;53063;39.614;8.814;2023-06-26T12:52:09;4.75;;;2.70;;
66270;SDS011;53063;39.614;8.814;2023-06-26T12:54:40;5.63;;;2.95;;
66270;SDS011;53063;39.614;8.814;2023-06-26T12:57:09;3.25;;;2.58;;
66270;SDS011;53063;39.614;8.814;2023-06-26T12:59:36;6.30;;;3.83;;
66270;SDS011;53063;39.614;8.814;2023-06-26T13:02:03;4.32;;;2.78;;
66270;SDS011;53063;39.614;8.814;2023-06-26T13:04:29;4.75;;;2.47;;
66270;SDS011;53063;39.614;8.814;2023-06-26T13:06:55;5.32;;;2.85;;
66270;SDS011;53063;39.614;8.814;2023-06-26T13:09:22;4.85;;;2.80;;
66270;SDS011;53063;39.614;8.814;2023-06-26T13:11:50;5.30;;;2.58;;
66270;SDS011;53063;39.614;8.814;2023-06-26T13:14:16;4.20;;;2.60;;
66270;SDS011;53063;39.614;8.814;2023-06-26T13:16:42;4.60;;;2.70;;
66270;SDS011;53063;39.614;8.814;2023-06-26T13:19:09;4.57;;;2.55;;
66270;SDS011;53063;39.614;8.814;2023-06-26T13:21:35;4.72;;;2.63;;
66270;SDS011;53063;39.614;8.814;2023-06-26T13:24:01;5.50;;;2.58;;
66270;SDS011;53063;39.614;8.814;2023-06-26T13:26:31;4.20;;;2.80;;
66270;SDS011;53063;39.614;8.814;2023-06-26T13:28:58;5.63;;;3.05;;
66270;SDS011;53063;39.614;8.814;2023-06-26T13:31:24;3.85;;;2.72;;
66270;SDS011;53063;39.614;8.814;2023-06-26T13:33:50;3.88;;;2.63;;
66270;SDS011;53063;39.614;8.814;2023-06-26T13:36:19;4.70;;;2.60;;
66270;SDS011;53063;39.614;8.814;2023-06-26T13:38:46;4.95;;;2.80;;
66270;SDS011;53063;39.614;8.814;2023-06-26T13:41:15;4.82;;;2.97;;
66270;SDS011;53063;39.614;8.814;2023-06-26T13:43:41;4.93;;;3.38;;
66270;SDS011;53063;39.614;8.814;2023-06-26T13:46:06;5.20;;;3.13;;
66270;SDS011;53063;39.614;8.814;2023-06-26T13:48:32;7.15;;;2.35;;
66270;SDS011;53063;39.614;8.814;2023-06-26T13:50:58;5.35;;;2.75;;
66270;SDS011;53063;39.614;8.814;2023-06-26T13:53:25;5.35;;;3.28;;
66270;SDS011;53063;39.614;8.814;2023-06-26T13:55:51;5.47;;;3.45;;
66270;SDS011;53063;39.614;8.814;2023-06-26T13:58:17;5.85;;;2.92;;
66270;SDS011;53063;39.614;8.814;2023-06-26T14:00:44;5.78;;;3.10;;
66270;SDS011;53063;39.614;8.814;2023-06-26T14:03:10;4.05;;;2.72;;
66270;SDS011;53063;39.614;8.814;2023-06-26T14:05:36;3.90;;;2.97;;
66270;SDS011;53063;39.614;8.814;2023-06-26T14:08:03;4.97;;;3.05;;
66270;SDS011;53063;39.614;8.814;2023-06-26T14:10:30;5.53;;;3.05;;
66270;SDS011;53063;39.614;8.814;2023-06-26T14:12:58;4.57;;;3.05;;
66270;SDS011;53063;39.614;8.814;2023-06-26T14:15:25;5.07;;;3.05;;
66270;SDS011;53063;39.614;8.814;2023-06-26T14:17:51;4.22;;;3.22;;
66270;SDS011;53063;39.614;8.814;2023-06-26T14:20:17;5.55;;;3.03;;
66270;SDS011;53063;39.614;8.814;2023-06-26T14:22:46;4.93;;;3.17;;
66270;SDS011;53063;39.614;8.814;2023-06-26T14:25:12;11.32;;;3.47;;
66270;SDS011;53063;39.614;8.814;2023-06-26T14:27:38;7.53;;;3.03;;
66270;SDS011;53063;39.614;8.814;2023-06-26T14:30:04;6.13;;;3.38;;
66270;SDS011;53063;39.614;8.814;2023-06-26T14:32:32;5.38;;;3.30;;
66270;SDS011;53063;39.614;8.814;2023-06-26T14:34:59;4.03;;;2.85;;
66270;SDS011;53063;39.614;8.814;2023-06-26T14:37:25;7.55;;;3.35;;
66270;SDS011;53063;39.614;8.814;2023-06-26T14:39:52;5.30;;;3.30;;
66270;SDS011;53063;39.614;8.814;2023-06-26T14:42:18;6.25;;;3.78;;
66270;SDS011;53063;39.614;8.814;2023-06-26T14:44:43;7.00;;;3.15;;
66270;SDS011;53063;39.614;8.814;2023-06-26T14:47:12;4.35;;;3.13;;
66270;SDS011;53063;39.614;8.814;2023-06-26T14:49:39;5.18;;;3.20;;
66270;SDS011;53063;39.614;8.814;2023-06-26T14:52:05;5.95;;;3.10;;
66270;SDS011;53063;39.614;8.814;2023-06-26T14:54:31;6.40;;;3.45;;
66270;SDS011;53063;39.614;8.814;2023-06-26T14:56:58;6.82;;;2.80;;
66270;SDS011;53063;39.614;8.814;2023-06-26T14:59:25;5.75;;;3.22;;
66270;SDS011;53063;39.614;8.814;2023-06-26T15:01:51;6.03;;;2.83;;
66270;SDS011;53063;39.614;8.814;2023-06-26T15:04:17;7.97;;;2.75;;
66270;SDS011;53063;39.614;8.814;2023-06-26T15:06:43;8.48;;;2.65;;